YBTL

Townsville Airport

Townsville, Australia
TAF YBTL 182315Z 1900/1924 12010KT 9999 SCT022 SCT035 FM190100 07017KT 9999 FEW035 FM190800 12010KT 9999 SCT022 SCT035
Issued Valid From Valid To
Jan-18 @ 23:15 UTC
(4 hours ago)
Jan-19 @ 00:00 UTC
(3 hours ago)
Jan-20 @ 00:00 UTC
(in 21 hours)
Expired Click to View Jan-19 @ 00:00 to Jan-19 @ 01:00
TAF YBTL 182315Z 1900/1924 12010KT 9999 SCT022 SCT035
Wind Visibility Clouds
120° at 10 knots 10,000+ meters
  • Scattered at 2,200' AGL
  • Scattered at 3,500' AGL
From Jan-19 @ 01:00 to Jan-19 @ 08:00
FM190100 07017KT 9999 FEW035
Wind Visibility Clouds
70° at 17 knots 10,000+ meters
  • Few at 3,500' AGL
From Jan-19 @ 08:00 to Jan-20 @ 00:00
FM190800 12010KT 9999 SCT022 SCT035
Wind Visibility Clouds
120° at 10 knots 10,000+ meters
  • Scattered at 2,200' AGL
  • Scattered at 3,500' AGL
TAF YBTL 182315Z 1900/1924 12010KT 9999 SCT022 SCT035 FM190100 07017KT 9999 FEW035 FM190800 12010KT 9999 SCT022 SCT035
Issued Jan-18 @ 23:15 UTC
(4 hours ago)
Valid From Jan-19 @ 00:00 UTC
(3 hours ago)
Valid To Jan-20 @ 00:00 UTC
(in 21 hours)
Jan-19 @ 00:00 - Jan-19 @ 01:00
Wind Visibility
120° at 10 knots 10,000+ meters
Clouds
  • Scattered at 2,200' AGL
  • Scattered at 3,500' AGL
From Jan-19 @ 01:00 - Jan-19 @ 08:00
Wind Visibility
70° at 17 knots 10,000+ meters
Clouds
  • Few at 3,500' AGL
From Jan-19 @ 08:00 - Jan-20 @ 00:00
Wind Visibility
120° at 10 knots 10,000+ meters
Clouds
  • Scattered at 2,200' AGL
  • Scattered at 3,500' AGL